Ridgeway, WI (53582)

5:33 AM CDT on October 02, 2014 (GMT -0500)
Kittleson Krest | Change Station
CLOSE
Current Station
Personal Weather Station
Location: Barneveld, WI
Elevation: 1139 ft
Nearby Weather Stations

Elev 1139 ft 43.01 °N, 89.89 °W | Updated 1 minute ago

Overcast
Overcast
57.6 °F
Feels Like 57.6 °F
N
0.0
Wind Variable Wind from SW
Gusts 1.0 mph

Today
High -- | Low -- °F
--% Chance of Precip.
Yesterday
High -- | Low -- °F
Precip. -- in
6:58 AM 6:39 PM
First Quarter, 57% visible
Pressure 29.82 in
Visibility 7.0 miles
Clouds Mostly Cloudy 1700 ft
Mostly Cloudy 4300 ft
Dew Point 55 °F
Humidity 92%
Rainfall 0.00 in
Snow Depth Not available.
UV 0 out of 12
Pollen 3.00 out of 12
Air Quality Not available.
Flu Activity Not available.
METAR KMRJ 021015Z AUTO 00000KT 7SM BKN017 BKN043 16/14 A2982 RMK AO2

More Conditions Fewer Conditions

Pressure 29.82 in
Visibility 7.0 miles
Clouds Mostly Cloudy 1700 ft
Mostly Cloudy 4300 ft
Dew Point 55 °F
Humidity 92%
Rainfall 0.00 in
Snow Depth Not available.
UV 0 out of 12
Pollen 3.00 out of 12
Air Quality Not available.
Flu Activity Not available.
METAR KMRJ 021015Z AUTO 00000KT 7SM BKN017 BKN043 16/14 A2982 RMK AO2

More Conditions Fewer Conditions

10-Day Weather Forecast

Almanac

Astronomy

Oct. 02, 2014 Rise Set
Actual Time 6:58 AM CDT 6:39 PM CDT
Civil Twilight 6:30 AM CDT 7:07 PM CDT
Nautical Twilight 5:57 AM CDT 7:40 PM CDT
Astronomical Twilight 5:23 AM CDT 8:13 PM CDT
Moon 2:53 PM CDT 12:06 AM CDT
Length of Visible Light 12h 37m
Length of Day
11h 40m
Tomorrow will be 2m 53s shorter.
First Quarter, 57% of the Moon is Illuminated
Today
First Quarter
Oct 8
Full
Oct 15
Last Quarter
Oct 23
New
Oct 30
First Quarter

Today's Extremes

State Highs State Lows

Community

WunderPhotos

Upload Photos

1,758,210 photos uploaded!

WunderBlogs® & News

Nearby

Snow Depth

Station Depth Elevation
No new snow has been reported.

Earthquake Activity

City Distance Mag. Time & Date
No recent earthquake activity has been reported nearby.
Minimum magnitude displayed is 2.5.

Coastal Water Temperatures

Place Temperature
No Stations Reporting

Nearby Weather Stations